Terminal Aerodrome Forecast
Issued by NWS

Home | Current Version | Previous Version | Text Only | Print | Product List | Glossary On
Versions: 1 2 3 4 5 6 7 8 9 10 11 12 13
668
FTUS45 KABQ 260538
TAFFMN
TAF
KFMN 260538Z 2606/2706 09006KT P6SM SCT140
     FM261900 VRB05KT P6SM SCT090
     FM262300 03010KT P6SM VCSH BKN090
     FM270400 12010KT P6SM BKN130=

USA.gov is the U.S. government's official web portal to all federal, state and local government web resources and services.